createdAt,value
2018-11-07T00:01:34.858Z,57.60
2018-11-07T00:04:03.236Z,57.70
2018-11-07T00:06:31.576Z,62.53
2018-11-07T00:08:59.866Z,59.33
2018-11-07T00:11:28.226Z,58.90
2018-11-07T00:13:56.620Z,58.63
2018-11-07T00:16:24.835Z,59.40
2018-11-07T00:18:53.201Z,61.27
2018-11-07T00:21:21.462Z,62.33
2018-11-07T00:23:49.742Z,61.73
2018-11-07T00:26:18.070Z,62.07
2018-11-07T00:28:46.462Z,59.27
2018-11-07T00:31:14.722Z,61.37
2018-11-07T00:33:43.002Z,63.07
2018-11-07T00:36:11.378Z,63.30
2018-11-07T00:38:39.639Z,62.47
2018-11-07T00:41:07.930Z,61.13
2018-11-07T00:43:36.210Z,62.03
2018-11-07T00:46:04.775Z,61.67
2018-11-07T00:48:33.043Z,59.90
2018-11-07T00:51:01.320Z,59.93
2018-11-07T00:53:29.618Z,58.60
2018-11-07T00:55:57.992Z,54.40
2018-11-07T00:58:26.308Z,54.27
2018-11-07T01:00:54.669Z,52.60
2018-11-07T01:03:22.979Z,50.60
2018-11-07T01:05:51.312Z,46.47
2018-11-07T01:08:19.599Z,46.27
2018-11-07T01:10:47.862Z,47.40
2018-11-07T01:13:16.168Z,44.50
2018-11-07T01:15:44.565Z,45.43
2018-11-07T01:18:12.926Z,45.73
2018-11-07T01:20:41.283Z,44.20
2018-11-07T01:23:09.685Z,44.10
2018-11-07T01:25:37.992Z,47.23
2018-11-07T01:28:06.434Z,46.60
2018-11-07T01:30:34.798Z,45.27
2018-11-07T01:33:03.265Z,49.33
2018-11-07T01:35:31.584Z,45.03
2018-11-07T01:38:00.045Z,45.53
2018-11-07T01:40:28.355Z,47.90
2018-11-07T01:42:56.661Z,46.70
2018-11-07T01:45:25.187Z,46.07
2018-11-07T01:47:53.600Z,43.90
2018-11-07T01:50:24.912Z,45.13
2018-11-07T01:52:53.183Z,42.80
2018-11-07T01:55:21.526Z,43.97
2018-11-07T01:57:49.950Z,44.93
2018-11-07T02:00:18.286Z,45.03
2018-11-07T02:02:46.609Z,46.20
2018-11-07T02:05:15.065Z,48.67
2018-11-07T02:07:43.705Z,46.83
2018-11-07T02:10:12.181Z,46.10
2018-11-07T02:12:41.273Z,48.20
2018-11-07T02:15:10.366Z,47.60
2018-11-07T02:17:38.684Z,46.20
2018-11-07T02:20:08.055Z,45.90
2018-11-07T02:22:36.411Z,46.50
2018-11-07T02:25:05.346Z,45.40
2018-11-07T02:27:33.705Z,54.57
2018-11-07T02:30:02.075Z,58.70
2018-11-07T02:32:30.429Z,76.60
2018-11-07T02:34:58.747Z,66.77
2018-11-07T02:37:27.094Z,83.17
2018-11-07T02:39:55.507Z,74.90
2018-11-07T02:42:23.882Z,69.47
2018-11-07T02:44:52.345Z,71.33
2018-11-07T02:47:20.757Z,68.90
2018-11-07T02:49:56.942Z,68.97
2018-11-07T02:52:25.367Z,70.97
2018-11-07T02:54:53.653Z,84.80
2018-11-07T02:57:22.110Z,89.13
2018-11-07T02:59:50.408Z,81.30
2018-11-07T03:02:18.791Z,89.73
2018-11-07T03:04:47.076Z,69.43
2018-11-07T03:07:15.462Z,64.23
2018-11-07T03:09:43.763Z,62.63
2018-11-07T03:12:12.072Z,63.70
2018-11-07T03:14:40.334Z,62.70
2018-11-07T03:17:08.684Z,58.20
2018-11-07T03:19:36.960Z,51.70
2018-11-07T03:22:05.622Z,55.57
2018-11-07T03:24:33.923Z,63.60
2018-11-07T03:27:02.217Z,59.47
2018-11-07T03:29:30.573Z,55.70
2018-11-07T03:31:59.038Z,57.23
2018-11-07T03:34:27.474Z,57.47
2018-11-07T03:36:55.748Z,53.20
2018-11-07T03:39:24.035Z,64.80
2018-11-07T03:41:52.388Z,61.00
2018-11-07T03:44:20.680Z,55.53
2018-11-07T03:46:49.110Z,72.40
2018-11-07T03:49:17.492Z,71.23
2018-11-07T03:51:45.773Z,54.77
2018-11-07T03:54:14.218Z,61.63
2018-11-07T03:56:42.579Z,58.87
2018-11-07T03:59:10.851Z,61.67
2018-11-07T04:01:39.189Z,57.80
2018-11-07T04:04:07.464Z,61.07
2018-11-07T04:06:35.845Z,58.07
2018-11-07T04:09:06.309Z,59.03
2018-11-07T04:11:34.686Z,56.70
2018-11-07T04:14:02.993Z,54.37
2018-11-07T04:16:31.314Z,55.33
2018-11-07T04:18:59.633Z,51.57
2018-11-07T04:21:27.957Z,48.70
2018-11-07T04:24:03.793Z,48.93
2018-11-07T04:26:33.647Z,50.00
2018-11-07T04:29:02.007Z,48.37
2018-11-07T04:31:30.835Z,49.83
2018-11-07T04:33:59.120Z,48.07
2018-11-07T04:36:27.566Z,46.33
2018-11-07T04:38:56.316Z,47.63
2018-11-07T04:41:24.873Z,46.10
2018-11-07T04:43:53.186Z,45.60
2018-11-07T04:46:21.598Z,45.60
2018-11-07T04:48:49.994Z,42.47
2018-11-07T04:51:18.290Z,50.20
2018-11-07T04:53:46.608Z,44.20
2018-11-07T04:56:14.886Z,42.60
2018-11-07T04:58:43.192Z,48.97
2018-11-07T05:01:11.482Z,47.23
2018-11-07T05:03:39.830Z,46.63
2018-11-07T05:06:08.276Z,54.30
2018-11-07T05:08:36.615Z,45.93
2018-11-07T05:11:04.949Z,47.73
2018-11-07T05:13:33.266Z,49.57
2018-11-07T05:16:01.605Z,45.47
2018-11-07T05:18:29.943Z,46.37
2018-11-07T05:20:58.246Z,44.53
2018-11-07T05:23:26.575Z,45.63
2018-11-07T05:25:54.853Z,47.50
2018-11-07T05:28:23.154Z,44.27
2018-11-07T05:30:51.506Z,43.83
2018-11-07T05:33:19.831Z,42.90
2018-11-07T05:35:48.120Z,40.93
2018-11-07T05:38:16.461Z,46.53
2018-11-07T05:40:44.787Z,51.43
2018-11-07T05:43:13.170Z,47.43
2018-11-07T05:45:41.482Z,54.50
2018-11-07T05:48:09.794Z,50.37
2018-11-07T05:50:38.118Z,62.17
2018-11-07T05:53:06.642Z,56.87
2018-11-07T05:55:34.919Z,54.67
2018-11-07T05:58:03.213Z,60.23
2018-11-07T06:00:31.594Z,61.43
2018-11-07T06:02:59.983Z,53.17
2018-11-07T06:05:28.355Z,57.83
2018-11-07T06:07:56.671Z,60.10
2018-11-07T06:10:24.986Z,60.63
2018-11-07T06:12:53.353Z,61.00
2018-11-07T06:15:21.758Z,59.13
2018-11-07T06:17:50.097Z,58.67
2018-11-07T06:20:18.545Z,58.57
2018-11-07T06:22:46.972Z,56.07
2018-11-07T06:25:15.366Z,54.07
2018-11-07T06:27:43.788Z,57.53
2018-11-07T06:30:13.054Z,54.60
2018-11-07T06:32:42.141Z,55.00
2018-11-07T06:35:11.138Z,59.50
2018-11-07T06:37:39.622Z,56.20
2018-11-07T06:40:09.726Z,52.47
2018-11-07T06:42:38.126Z,50.97
2018-11-07T06:45:07.070Z,49.70
2018-11-07T06:47:35.355Z,44.20
2018-11-07T06:50:03.718Z,47.33
2018-11-07T06:52:32.119Z,40.87
2018-11-07T06:55:00.441Z,45.30
2018-11-07T06:57:28.721Z,44.67
2018-11-07T06:59:57.075Z,45.43
2018-11-07T07:02:25.661Z,42.73
2018-11-07T07:04:54.041Z,40.83
2018-11-07T07:07:22.346Z,40.37
2018-11-07T07:09:50.647Z,36.93
2018-11-07T07:12:18.942Z,37.10
2018-11-07T07:14:47.247Z,39.37
2018-11-07T07:17:15.634Z,37.47
2018-11-07T07:19:44.112Z,37.53
2018-11-07T07:22:12.392Z,38.73
2018-11-07T07:24:40.681Z,35.13
2018-11-07T07:27:09.050Z,35.43
2018-11-07T07:29:37.362Z,34.80
2018-11-07T07:32:05.662Z,37.73
2018-11-07T07:34:33.988Z,38.83
2018-11-07T07:37:02.304Z,38.33
2018-11-07T07:39:30.597Z,43.13
2018-11-07T07:41:58.887Z,46.73
2018-11-07T07:44:27.164Z,44.43
2018-11-07T07:46:55.571Z,46.20
2018-11-07T07:49:23.939Z,45.37
2018-11-07T07:51:52.211Z,58.73
2018-11-07T07:54:20.610Z,57.10
2018-11-07T07:56:48.895Z,53.20
2018-11-07T07:59:17.190Z,51.13
2018-11-07T08:01:45.649Z,53.33
2018-11-07T08:04:14.129Z,48.63
2018-11-07T08:06:42.559Z,41.30
2018-11-07T08:09:12.732Z,35.97
2018-11-07T08:11:41.149Z,33.90
2018-11-07T08:14:10.115Z,32.97
2018-11-07T08:16:38.488Z,33.33
2018-11-07T08:19:07.481Z,32.37
2018-11-07T08:21:35.774Z,30.33
2018-11-07T08:24:04.091Z,30.60
2018-11-07T08:26:32.520Z,29.27
2018-11-07T08:29:00.816Z,28.87
2018-11-07T08:31:29.174Z,30.80
2018-11-07T08:33:57.662Z,30.97
2018-11-07T08:36:26.056Z,33.80
2018-11-07T08:38:54.381Z,33.43
2018-11-07T08:41:22.691Z,32.90
2018-11-07T08:43:51.057Z,33.20
2018-11-07T08:46:19.678Z,35.03
2018-11-07T08:48:48.246Z,33.77
2018-11-07T08:51:16.579Z,33.00
2018-11-07T08:53:44.857Z,33.43
2018-11-07T08:56:13.177Z,31.10
2018-11-07T08:58:41.694Z,33.10
2018-11-07T09:01:10.112Z,31.83
2018-11-07T09:03:38.422Z,28.33
2018-11-07T09:06:06.718Z,30.37
2018-11-07T09:08:34.995Z,28.70
2018-11-07T09:11:03.322Z,26.27
2018-11-07T09:13:31.650Z,27.20
2018-11-07T09:16:00.112Z,28.73
2018-11-07T09:18:28.458Z,30.10
2018-11-07T09:20:56.766Z,29.90
2018-11-07T09:23:25.150Z,30.40
2018-11-07T09:25:53.459Z,30.60
2018-11-07T09:28:21.857Z,31.77
2018-11-07T09:30:50.202Z,32.60
2018-11-07T09:33:18.511Z,33.37
2018-11-07T09:35:46.845Z,34.33
2018-11-07T09:38:15.169Z,31.80
2018-11-07T09:40:43.469Z,34.10
2018-11-07T09:43:11.793Z,33.93
2018-11-07T09:45:40.160Z,32.93
2018-11-07T09:48:08.538Z,32.23
2018-11-07T09:50:36.766Z,31.73
2018-11-07T09:53:05.198Z,32.20
2018-11-07T09:55:33.498Z,31.73
2018-11-07T09:58:01.811Z,32.60
2018-11-07T10:00:30.129Z,30.83
2018-11-07T10:02:58.447Z,30.30
2018-11-07T10:05:26.812Z,29.37
2018-11-07T10:07:55.168Z,29.53
2018-11-07T10:10:23.497Z,30.90
2018-11-07T10:12:51.834Z,30.53
2018-11-07T10:15:20.619Z,29.13
2018-11-07T10:17:48.983Z,29.07
2018-11-07T10:20:18.793Z,26.93
2018-11-07T10:22:47.736Z,26.30
2018-11-07T10:25:16.285Z,25.17
2018-11-07T10:27:45.117Z,24.13
2018-11-07T10:30:15.950Z,25.33
2018-11-07T10:32:45.135Z,23.53
2018-11-07T10:35:13.411Z,24.57
2018-11-07T10:37:41.790Z,23.37
2018-11-07T10:40:13.859Z,22.37
2018-11-07T10:42:42.358Z,23.23
2018-11-07T10:45:11.435Z,22.60
2018-11-07T10:47:39.931Z,20.43
2018-11-07T10:50:09.829Z,18.43
2018-11-07T10:52:38.738Z,21.17
2018-11-07T10:55:07.496Z,19.67
2018-11-07T10:57:36.041Z,20.23
2018-11-07T11:00:05.373Z,18.73
2018-11-07T11:02:39.082Z,19.00
2018-11-07T11:05:07.462Z,19.57
2018-11-07T11:07:35.755Z,18.33
2018-11-07T11:10:04.515Z,19.07
2018-11-07T11:12:32.946Z,19.03
2018-11-07T11:15:01.286Z,18.47
2018-11-07T11:17:29.655Z,17.40
2018-11-07T11:19:57.935Z,18.40
2018-11-07T11:22:26.264Z,17.87
2018-11-07T11:24:54.546Z,18.13
2018-11-07T11:27:22.891Z,18.33
2018-11-07T11:29:51.150Z,18.17
2018-11-07T11:32:19.502Z,18.97
2018-11-07T11:34:47.842Z,17.53
2018-11-07T11:37:16.088Z,17.37
2018-11-07T11:39:44.363Z,18.90
2018-11-07T11:42:12.767Z,19.53
2018-11-07T11:44:41.069Z,16.30
2018-11-07T11:47:09.375Z,16.33
2018-11-07T11:49:37.700Z,15.77
2018-11-07T11:52:06.089Z,16.00
2018-11-07T11:54:34.374Z,17.00
2018-11-07T11:57:02.653Z,15.50
2018-11-07T11:59:31.163Z,17.23
2018-11-07T12:01:59.408Z,15.90
2018-11-07T12:04:27.780Z,16.93
2018-11-07T12:06:56.075Z,17.00
2018-11-07T12:09:24.394Z,17.17
2018-11-07T12:11:52.714Z,17.77
2018-11-07T12:14:20.997Z,16.73
2018-11-07T12:16:49.306Z,18.03
2018-11-07T12:19:17.748Z,17.73
2018-11-07T12:21:46.131Z,18.43
2018-11-07T12:24:14.443Z,20.27
2018-11-07T12:26:42.732Z,17.50
2018-11-07T12:29:11.072Z,17.70
2018-11-07T12:31:39.373Z,18.13
2018-11-07T12:34:07.712Z,18.40
2018-11-07T12:36:36.112Z,17.07
2018-11-07T12:39:06.150Z,18.30
2018-11-07T12:41:34.482Z,16.70
2018-11-07T12:44:02.898Z,15.43
2018-11-07T12:46:31.257Z,15.20
2018-11-07T12:48:59.599Z,13.67
2018-11-07T12:51:27.894Z,13.20
2018-11-07T12:53:56.294Z,12.13
2018-11-07T12:56:24.623Z,12.67
2018-11-07T12:58:53.182Z,12.77
2018-11-07T13:01:21.509Z,12.77
2018-11-07T13:03:49.826Z,13.43
2018-11-07T13:06:18.107Z,13.50
2018-11-07T13:08:46.413Z,12.97
2018-11-07T13:11:14.768Z,14.17
2018-11-07T13:13:43.090Z,13.60
2018-11-07T13:16:11.444Z,12.93
2018-11-07T13:18:39.963Z,11.43
2018-11-07T13:21:08.375Z,10.77
2018-11-07T13:23:36.671Z,11.10
2018-11-07T13:26:05.274Z,12.17
2018-11-07T13:28:33.678Z,12.13
2018-11-07T13:31:01.931Z,12.07
2018-11-07T13:33:30.240Z,11.63
2018-11-07T13:35:58.759Z,11.13
2018-11-07T13:38:27.468Z,10.87
2018-11-07T13:40:55.367Z,12.30
2018-11-07T13:43:23.693Z,11.53
2018-11-07T13:45:52.061Z,11.87
2018-11-07T13:48:20.310Z,11.73
2018-11-07T13:50:48.730Z,11.33
2018-11-07T13:53:17.098Z,11.33
2018-11-07T13:55:45.335Z,10.57
2018-11-07T13:58:13.635Z,10.07
2018-11-07T14:00:41.950Z,8.90
2018-11-07T14:03:10.292Z,9.33
2018-11-07T14:05:38.767Z,9.67
2018-11-07T14:08:06.998Z,9.27
2018-11-07T14:10:35.370Z,9.10
2018-11-07T14:13:03.691Z,9.07
2018-11-07T14:15:32.127Z,9.10
2018-11-07T14:18:00.427Z,9.20
2018-11-07T14:20:28.864Z,8.53
2018-11-07T14:22:57.165Z,8.40
2018-11-07T14:25:25.544Z,8.60
2018-11-07T14:27:53.920Z,8.83
2018-11-07T14:30:22.232Z,8.80
2018-11-07T14:32:55.969Z,8.17
2018-11-07T14:35:24.409Z,8.80
2018-11-07T14:37:53.415Z,8.57
2018-11-07T14:40:21.726Z,7.87
2018-11-07T14:42:50.039Z,8.77
2018-11-07T14:45:18.318Z,7.40
2018-11-07T14:47:46.626Z,8.47
2018-11-07T14:50:15.092Z,8.30
2018-11-07T14:52:43.391Z,7.80
2018-11-07T14:55:12.360Z,8.27
2018-11-07T14:57:40.735Z,8.53
2018-11-07T15:00:10.343Z,8.73
2018-11-07T15:02:39.296Z,8.60
2018-11-07T15:05:09.155Z,8.53
2018-11-07T15:07:37.569Z,8.67
2018-11-07T15:10:07.367Z,8.87
2018-11-07T15:12:35.827Z,9.07
2018-11-07T15:15:04.726Z,8.33
2018-11-07T15:17:33.035Z,9.00
2018-11-07T15:20:01.309Z,8.43
2018-11-07T15:22:29.606Z,9.13
2018-11-07T15:24:57.888Z,8.30
2018-11-07T15:27:26.203Z,9.37
2018-11-07T15:29:54.473Z,9.13
2018-11-07T15:32:22.767Z,9.37
2018-11-07T15:34:51.150Z,8.83
2018-11-07T15:37:19.447Z,8.73
2018-11-07T15:39:47.742Z,9.17
2018-11-07T15:42:16.029Z,9.00
2018-11-07T15:44:44.307Z,8.73
2018-11-07T15:47:12.612Z,9.87
2018-11-07T15:49:41.682Z,8.53
2018-11-07T15:52:10.451Z,9.03
2018-11-07T15:54:38.798Z,9.60
2018-11-07T15:57:07.124Z,10.13
2018-11-07T15:59:35.430Z,10.50
2018-11-07T16:02:03.770Z,11.33
2018-11-07T16:04:32.066Z,10.73
2018-11-07T16:07:00.423Z,10.50
2018-11-07T16:09:28.775Z,11.00
2018-11-07T16:11:57.058Z,11.47
2018-11-07T16:14:25.421Z,9.97
2018-11-07T16:16:53.811Z,12.27
2018-11-07T16:19:22.153Z,13.50
2018-11-07T16:21:50.478Z,13.47
2018-11-07T16:24:18.948Z,13.47
2018-11-07T16:26:47.237Z,14.43
2018-11-07T16:29:15.562Z,13.23
2018-11-07T16:31:43.940Z,12.73
2018-11-07T16:34:12.366Z,12.60
2018-11-07T16:36:40.666Z,12.10
2018-11-07T16:39:10.274Z,13.67
2018-11-07T16:41:38.775Z,12.43
2018-11-07T16:44:07.032Z,13.30
2018-11-07T16:46:35.504Z,14.07
2018-11-07T16:49:03.821Z,13.97
2018-11-07T16:51:32.130Z,13.97
2018-11-07T16:54:00.443Z,14.20
2018-11-07T16:56:28.782Z,13.27
2018-11-07T16:58:57.138Z,13.77
2018-11-07T17:01:25.411Z,13.20
2018-11-07T17:03:53.742Z,13.13
2018-11-07T17:06:22.147Z,12.77
2018-11-07T17:08:50.433Z,13.63
2018-11-07T17:11:18.728Z,13.93
2018-11-07T17:13:47.028Z,12.90
2018-11-07T17:16:15.336Z,13.17
2018-11-07T17:18:43.629Z,14.67
2018-11-07T17:21:11.902Z,15.30
2018-11-07T17:23:40.186Z,15.97
2018-11-07T17:26:08.554Z,14.93
2018-11-07T17:28:36.906Z,15.07
2018-11-07T17:31:05.562Z,17.23
2018-11-07T17:33:33.847Z,16.50
2018-11-07T17:36:02.220Z,15.07
2018-11-07T17:38:30.593Z,14.03
2018-11-07T17:40:58.978Z,14.30
2018-11-07T17:43:27.413Z,15.03
2018-11-07T17:45:55.986Z,13.97
2018-11-07T17:48:24.389Z,14.47
2018-11-07T17:50:52.783Z,13.77
2018-11-07T17:53:21.154Z,13.50
2018-11-07T17:55:50.541Z,14.63
2018-11-07T17:58:19.755Z,13.87
2018-11-07T18:00:49.164Z,13.90
2018-11-07T18:03:18.231Z,13.70
2018-11-07T18:05:46.566Z,13.53
2018-11-07T18:08:14.940Z,13.77
2018-11-07T18:10:43.864Z,14.00
2018-11-07T18:13:12.479Z,13.73
2018-11-07T18:15:40.954Z,14.40
2018-11-07T18:18:09.351Z,14.57
2018-11-07T18:20:37.822Z,14.87
2018-11-07T18:23:06.254Z,14.63
2018-11-07T18:25:34.550Z,15.60
2018-11-07T18:28:02.937Z,16.63
2018-11-07T18:30:31.339Z,18.40
2018-11-07T18:32:59.670Z,19.50
2018-11-07T18:35:28.019Z,22.10
2018-11-07T18:37:56.377Z,18.70
2018-11-07T18:40:24.781Z,17.87
2018-11-07T18:42:53.152Z,15.53
2018-11-07T18:45:21.513Z,15.37
2018-11-07T18:47:49.931Z,16.70
2018-11-07T18:50:19.662Z,16.23
2018-11-07T18:52:47.849Z,16.83
2018-11-07T18:55:17.003Z,16.33
2018-11-07T18:57:45.981Z,16.97
2018-11-07T19:00:16.122Z,15.67
2018-11-07T19:02:45.001Z,16.90
2018-11-07T19:05:13.373Z,16.87
2018-11-07T19:07:41.986Z,17.63
2018-11-07T19:10:13.029Z,17.17
2018-11-07T19:12:41.445Z,17.93
2018-11-07T19:15:11.606Z,17.40
2018-11-07T19:17:40.803Z,17.07
2018-11-07T19:20:10.225Z,17.07
2018-11-07T19:22:38.598Z,16.43
2018-11-07T19:25:09.132Z,15.67
2018-11-07T19:27:38.216Z,16.07
2018-11-07T19:30:08.973Z,16.53
2018-11-07T19:32:37.544Z,16.63
2018-11-07T19:35:07.214Z,14.93
2018-11-07T19:37:35.511Z,15.83
2018-11-07T19:40:04.185Z,15.43
2018-11-07T19:42:32.502Z,15.37
2018-11-07T19:45:01.003Z,15.60
2018-11-07T19:47:29.451Z,16.27
2018-11-07T19:49:57.841Z,16.00
2018-11-07T19:52:26.240Z,14.60
2018-11-07T19:54:54.602Z,13.87
2018-11-07T19:57:22.830Z,14.90
2018-11-07T19:59:51.200Z,13.90
2018-11-07T20:02:19.470Z,13.97
2018-11-07T20:04:47.904Z,14.73
2018-11-07T20:07:16.283Z,14.30
2018-11-07T20:09:44.711Z,14.50
2018-11-07T20:12:13.457Z,14.97
2018-11-07T20:14:41.834Z,15.13
2018-11-07T20:17:10.157Z,14.77
2018-11-07T20:19:38.489Z,14.67
2018-11-07T20:22:06.782Z,15.77
2018-11-07T20:24:35.074Z,16.13
2018-11-07T20:27:03.423Z,16.43
2018-11-07T20:29:31.710Z,17.50
2018-11-07T20:32:00.010Z,16.90
2018-11-07T20:34:28.286Z,17.27
2018-11-07T20:36:56.710Z,17.27
2018-11-07T20:39:24.987Z,17.07
2018-11-07T20:41:53.533Z,17.50
2018-11-07T20:44:21.913Z,17.50
2018-11-07T20:46:50.522Z,17.43
2018-11-07T20:49:19.031Z,17.20
2018-11-07T20:51:47.543Z,17.07
2018-11-07T20:54:15.914Z,17.00
2018-11-07T20:56:45.246Z,18.30
2018-11-07T20:59:13.583Z,18.07
2018-11-07T21:01:41.918Z,18.07
2018-11-07T21:04:10.265Z,16.50
2018-11-07T21:06:38.666Z,16.90
2018-11-07T21:09:09.213Z,17.47
2018-11-07T21:11:37.567Z,17.40
2018-11-07T21:14:06.128Z,16.13
2018-11-07T21:16:34.526Z,17.37
2018-11-07T21:19:02.825Z,17.17
2018-11-07T21:21:31.302Z,16.73
2018-11-07T21:23:59.598Z,1.50
2018-11-07T21:26:28.200Z,1.30
2018-11-07T21:28:56.506Z,1.30
2018-11-07T21:31:25.316Z,0.63
2018-11-07T21:33:53.589Z,0.97
2018-11-07T21:36:21.904Z,0.60
2018-11-07T21:38:50.500Z,0.40
2018-11-07T21:41:19.269Z,0.47
2018-11-07T21:43:47.769Z,0.70
2018-11-07T21:46:17.674Z,0.50
2018-11-07T21:48:46.589Z,0.63
2018-11-07T21:51:15.314Z,0.47
2018-11-07T21:53:43.793Z,0.70
2018-11-07T21:56:12.211Z,0.60
2018-11-07T21:58:40.750Z,0.73
2018-11-07T22:01:09.247Z,0.53
2018-11-07T22:03:38.074Z,0.43
2018-11-07T22:06:06.590Z,0.50
2018-11-07T22:08:34.993Z,0.70
2018-11-07T22:11:03.285Z,0.70
2018-11-07T22:13:32.059Z,0.70
2018-11-07T22:16:00.975Z,0.30
2018-11-07T22:18:29.537Z,0.70
2018-11-07T22:20:58.477Z,0.77
2018-11-07T22:23:27.280Z,0.40
2018-11-07T22:25:56.153Z,0.60
2018-11-07T22:28:24.584Z,0.40
2018-11-07T22:30:53.174Z,0.60
2018-11-07T22:33:21.484Z,0.60
2018-11-07T22:35:50.073Z,0.50
2018-11-07T22:38:18.495Z,0.53
2018-11-07T22:40:47.417Z,0.40
2018-11-07T22:43:16.177Z,0.30
2018-11-07T22:45:44.582Z,0.57
2018-11-07T22:48:13.415Z,0.50
2018-11-07T22:50:41.694Z,0.30
2018-11-07T22:53:10.087Z,0.40
2018-11-07T22:55:38.419Z,0.77
2018-11-07T22:58:06.827Z,0.80
2018-11-07T23:00:40.531Z,0.57
2018-11-07T23:03:08.980Z,0.40
2018-11-07T23:05:37.314Z,0.43
2018-11-07T23:08:05.631Z,0.40
2018-11-07T23:10:34.023Z,0.40
2018-11-07T23:13:02.314Z,0.30
2018-11-07T23:15:36.097Z,0.53
2018-11-07T23:18:04.891Z,0.50
2018-11-07T23:20:33.179Z,0.43
2018-11-07T23:23:01.546Z,0.60
2018-11-07T23:25:29.830Z,0.60
2018-11-07T23:27:58.182Z,0.40
2018-11-07T23:30:26.528Z,0.53
2018-11-07T23:32:54.818Z,0.57
2018-11-07T23:35:23.119Z,0.50
2018-11-07T23:37:51.377Z,0.73
2018-11-07T23:40:19.698Z,0.30
2018-11-07T23:42:47.967Z,0.30
2018-11-07T23:45:16.271Z,0.37
2018-11-07T23:47:44.625Z,0.63
2018-11-07T23:50:12.922Z,0.60
2018-11-07T23:52:48.256Z,0.43
2018-11-07T23:55:17.767Z,0.50
2018-11-07T23:57:46.141Z,0.40
